createdAt,value
2018-03-02T00:00:47.108Z,44.90
2018-03-02T00:03:16.957Z,45.08
2018-03-02T00:05:46.604Z,45.13
2018-03-02T00:08:16.385Z,45.32
2018-03-02T00:10:49.367Z,45.49
2018-03-02T00:13:19.099Z,45.39
2018-03-02T00:15:49.014Z,45.39
2018-03-02T00:18:18.765Z,45.34
2018-03-02T00:20:48.571Z,45.62
2018-03-02T00:23:18.325Z,45.62
2018-03-02T00:25:48.780Z,45.66
2018-03-02T00:28:18.668Z,45.63
2018-03-02T00:30:48.432Z,45.78
2018-03-02T00:33:18.271Z,45.86
2018-03-02T00:35:48.016Z,45.91
2018-03-02T00:38:18.465Z,45.94
2018-03-02T00:40:48.336Z,45.97
2018-03-02T00:43:18.032Z,45.96
2018-03-02T00:45:48.552Z,45.96
2018-03-02T00:48:18.376Z,46.08
2018-03-02T00:50:48.148Z,46.10
2018-03-02T00:53:17.929Z,46.04
2018-03-02T00:55:47.732Z,46.10
2018-03-02T00:58:17.485Z,46.29
2018-03-02T01:00:48.078Z,46.47
2018-03-02T01:03:17.839Z,46.41
2018-03-02T01:05:47.534Z,46.48
2018-03-02T01:08:17.298Z,46.65
2018-03-02T01:10:47.913Z,46.89
2018-03-02T01:13:17.658Z,46.88
2018-03-02T01:15:47.507Z,46.83
2018-03-02T01:18:17.315Z,46.88
2018-03-02T01:20:48.039Z,46.87
2018-03-02T01:23:17.924Z,46.92
2018-03-02T01:25:47.761Z,46.87
2018-03-02T01:28:17.478Z,47.07
2018-03-02T01:30:47.224Z,47.03
2018-03-02T01:33:16.937Z,47.08
2018-03-02T01:35:47.592Z,47.16
2018-03-02T01:38:17.387Z,47.34
2018-03-02T01:40:47.152Z,47.40
2018-03-02T01:43:16.825Z,47.31
2018-03-02T01:45:46.746Z,47.23
2018-03-02T01:48:16.417Z,47.18
2018-03-02T01:50:46.133Z,47.09
2018-03-02T01:53:15.831Z,47.41
2018-03-02T01:55:45.571Z,47.48
2018-03-02T01:58:15.407Z,47.38
2018-03-02T02:00:45.960Z,47.34
2018-03-02T02:03:16.502Z,47.60
2018-03-02T02:05:47.369Z,47.82
2018-03-02T02:08:17.022Z,47.90
2018-03-02T02:10:46.843Z,47.89
2018-03-02T02:13:16.651Z,47.79
2018-03-02T02:15:46.404Z,47.75
2018-03-02T02:18:16.365Z,47.79
2018-03-02T02:20:46.809Z,47.90
2018-03-02T02:23:17.303Z,47.84
2018-03-02T02:25:47.008Z,47.84
2018-03-02T02:28:17.058Z,48.01
2018-03-02T02:30:46.820Z,48.26
2018-03-02T02:33:16.525Z,48.28
2018-03-02T02:35:46.403Z,48.32
2018-03-02T02:38:16.217Z,48.28
2018-03-02T02:40:45.914Z,48.18
2018-03-02T02:43:16.393Z,48.21
2018-03-02T02:45:46.153Z,48.30
2018-03-02T02:48:15.877Z,48.37
2018-03-02T02:50:45.763Z,48.42
2018-03-02T02:53:15.467Z,48.38
2018-03-02T02:55:45.134Z,48.40
2018-03-02T02:58:15.340Z,48.51
2018-03-02T03:00:45.096Z,48.64
2018-03-02T03:03:14.958Z,48.69
2018-03-02T03:05:44.723Z,48.82
2018-03-02T03:08:15.340Z,48.68
2018-03-02T03:10:45.029Z,48.72
2018-03-02T03:13:15.604Z,48.71
2018-03-02T03:15:45.292Z,48.63
2018-03-02T03:18:15.818Z,48.78
2018-03-02T03:20:45.475Z,48.72
2018-03-02T03:23:15.298Z,48.68
2018-03-02T03:25:45.021Z,48.89
2018-03-02T03:28:14.864Z,49.03
2018-03-02T03:30:44.688Z,48.99
2018-03-02T03:33:14.456Z,49.33
2018-03-02T03:35:45.220Z,49.24
2018-03-02T03:38:14.927Z,49.43
2018-03-02T03:40:45.545Z,49.35
2018-03-02T03:43:15.404Z,49.47
2018-03-02T03:45:52.517Z,49.44
2018-03-02T03:48:22.191Z,49.50
2018-03-02T03:50:51.961Z,49.35
2018-03-02T03:53:21.859Z,49.54
2018-03-02T03:55:52.348Z,49.57
2018-03-02T03:58:22.081Z,49.66
2018-03-02T04:00:51.802Z,49.68
2018-03-02T04:03:21.582Z,49.69
2018-03-02T04:05:51.517Z,49.97
2018-03-02T04:08:21.279Z,50.04
2018-03-02T04:10:51.081Z,50.20
2018-03-02T04:13:20.867Z,50.27
2018-03-02T04:15:51.355Z,50.39
2018-03-02T04:18:21.205Z,50.69
2018-03-02T04:20:50.951Z,50.39
2018-03-02T04:23:20.656Z,50.55
2018-03-02T04:25:50.388Z,50.69
2018-03-02T04:28:20.851Z,50.65
2018-03-02T04:30:50.722Z,50.46
2018-03-02T04:33:20.528Z,50.63
2018-03-02T04:35:50.316Z,50.79
2018-03-02T04:38:20.104Z,50.98
2018-03-02T04:40:50.038Z,51.06
2018-03-02T04:43:20.649Z,51.07
2018-03-02T04:45:50.744Z,50.96
2018-03-02T04:48:20.566Z,51.19
2018-03-02T04:50:50.380Z,51.36
2018-03-02T04:53:20.058Z,51.37
2018-03-02T04:55:49.818Z,51.28
2018-03-02T04:58:20.924Z,51.36
2018-03-02T05:00:50.726Z,51.53
2018-03-02T05:03:20.490Z,51.58
2018-03-02T05:05:50.389Z,51.64
2018-03-02T05:08:20.478Z,51.60
2018-03-02T05:10:50.214Z,51.52
2018-03-02T05:13:20.033Z,51.57
2018-03-02T05:15:49.745Z,51.67
2018-03-02T05:18:19.495Z,51.65
2018-03-02T05:20:49.211Z,51.58
2018-03-02T05:23:19.091Z,51.55
2018-03-02T05:25:49.553Z,51.69
2018-03-02T05:28:19.281Z,51.71
2018-03-02T05:30:49.396Z,52.20
2018-03-02T05:33:20.010Z,50.91
2018-03-02T05:35:49.804Z,51.05
2018-03-02T05:38:19.610Z,51.28
2018-03-02T05:40:49.979Z,52.53
2018-03-02T05:43:19.724Z,51.57
2018-03-02T05:45:50.294Z,51.71
2018-03-02T05:48:19.996Z,51.68
2018-03-02T05:50:57.312Z,51.87
2018-03-02T05:53:27.033Z,51.92
2018-03-02T05:55:57.318Z,53.01
2018-03-02T05:58:27.117Z,51.93
2018-03-02T06:00:56.940Z,52.04
2018-03-02T06:03:26.737Z,51.88
2018-03-02T06:05:56.677Z,51.77
2018-03-02T06:08:26.618Z,51.77
2018-03-02T06:10:56.476Z,51.88
2018-03-02T06:13:26.273Z,52.26
2018-03-02T06:15:57.049Z,52.28
2018-03-02T06:18:26.911Z,52.48
2018-03-02T06:20:56.942Z,52.49
2018-03-02T06:23:26.695Z,52.49
2018-03-02T06:25:56.489Z,52.28
2018-03-02T06:28:26.249Z,52.30
2018-03-02T06:30:56.041Z,52.17
2018-03-02T06:33:25.760Z,52.41
2018-03-02T06:35:55.682Z,52.29
2018-03-02T06:38:25.405Z,52.05
2018-03-02T06:40:55.273Z,52.25
2018-03-02T06:43:25.124Z,52.46
2018-03-02T06:45:55.825Z,52.24
2018-03-02T06:48:25.519Z,51.96
2018-03-02T06:50:55.253Z,52.14
2018-03-02T06:53:25.023Z,52.49
2018-03-02T06:55:54.872Z,52.36
2018-03-02T06:58:25.489Z,52.32
2018-03-02T07:00:55.533Z,52.42
2018-03-02T07:03:26.150Z,52.29
2018-03-02T07:05:56.116Z,52.25
2018-03-02T07:08:25.837Z,52.13
2018-03-02T07:10:55.612Z,52.21
2018-03-02T07:13:25.403Z,52.25
2018-03-02T07:15:55.256Z,52.30
2018-03-02T07:18:25.172Z,52.08
2018-03-02T07:20:55.479Z,52.30
2018-03-02T07:23:25.421Z,52.37
2018-03-02T07:25:55.422Z,52.44
2018-03-02T07:28:25.888Z,52.34
2018-03-02T07:30:55.613Z,52.38
2018-03-02T07:33:25.440Z,52.29
2018-03-02T07:35:55.281Z,51.95
2018-03-02T07:38:25.059Z,51.92
2018-03-02T07:40:55.701Z,51.90
2018-03-02T07:43:25.544Z,52.01
2018-03-02T07:45:55.411Z,51.41
2018-03-02T07:48:25.325Z,51.42
2018-03-02T07:50:55.082Z,51.56
2018-03-02T07:53:25.647Z,51.28
2018-03-02T07:55:55.456Z,50.93
2018-03-02T07:58:25.403Z,50.54
2018-03-02T08:00:55.131Z,50.58
2018-03-02T08:03:24.869Z,50.57
2018-03-02T08:05:55.417Z,50.95
2018-03-02T08:08:26.883Z,50.68
2018-03-02T08:10:56.778Z,50.73
2018-03-02T08:13:26.606Z,50.74
2018-03-02T08:15:56.404Z,50.45
2018-03-02T08:18:26.864Z,50.59
2018-03-02T08:20:56.560Z,50.32
2018-03-02T08:23:27.144Z,50.20
2018-03-02T08:25:56.921Z,49.83
2018-03-02T08:28:27.558Z,49.49
2018-03-02T08:30:58.213Z,50.14
2018-03-02T08:33:29.000Z,50.02
2018-03-02T08:35:58.762Z,49.81
2018-03-02T08:38:28.565Z,49.70
2018-03-02T08:40:59.198Z,49.50
2018-03-02T08:43:28.940Z,49.76
2018-03-02T08:45:58.707Z,49.46
2018-03-02T08:48:28.442Z,49.58
2018-03-02T08:50:58.255Z,49.47
2018-03-02T08:53:28.072Z,49.19
2018-03-02T08:55:57.793Z,48.99
2018-03-02T08:58:27.664Z,49.06
2018-03-02T09:00:57.402Z,48.94
2018-03-02T09:03:27.212Z,48.79
2018-03-02T09:05:57.198Z,48.94
2018-03-02T09:08:27.476Z,49.17
2018-03-02T09:10:57.552Z,49.14
2018-03-02T09:13:27.416Z,48.75
2018-03-02T09:15:57.130Z,48.16
2018-03-02T09:18:26.884Z,48.42
2018-03-02T09:20:56.841Z,48.62
2018-03-02T09:23:27.380Z,48.88
2018-03-02T09:25:57.887Z,48.82
2018-03-02T09:28:27.771Z,48.44
2018-03-02T09:30:57.501Z,48.03
2018-03-02T09:33:27.276Z,47.72
2018-03-02T09:35:57.143Z,47.59
2018-03-02T09:38:26.834Z,47.30
2018-03-02T09:40:57.416Z,47.53
2018-03-02T09:43:27.177Z,47.45
2018-03-02T09:45:56.951Z,47.18
2018-03-02T09:48:26.736Z,46.84
2018-03-02T09:50:57.381Z,46.42
2018-03-02T09:53:27.913Z,45.87
2018-03-02T09:55:58.530Z,45.80
2018-03-02T09:58:28.255Z,45.46
2018-03-02T10:00:57.963Z,45.11
2018-03-02T10:03:27.838Z,45.22
2018-03-02T10:05:58.338Z,45.67
2018-03-02T10:08:28.320Z,45.24
2018-03-02T10:10:57.999Z,45.54
2018-03-02T10:13:27.944Z,45.26
2018-03-02T10:15:58.558Z,45.01
2018-03-02T10:18:28.394Z,44.48
2018-03-02T10:20:58.256Z,44.55
2018-03-02T10:23:28.184Z,44.68
2018-03-02T10:25:58.257Z,44.95
2018-03-02T10:28:28.016Z,44.94
2018-03-02T10:30:57.769Z,44.55
2018-03-02T10:33:27.555Z,44.52
2018-03-02T10:35:58.047Z,44.44
2018-03-02T10:38:27.747Z,44.54
2018-03-02T10:40:57.492Z,44.27
2018-03-02T10:43:28.075Z,43.93
2018-03-02T10:45:57.913Z,43.58
2018-03-02T10:48:28.504Z,43.51
2018-03-02T10:50:58.320Z,43.39
2018-03-02T10:53:28.157Z,43.15
2018-03-02T10:56:00.760Z,43.23
2018-03-02T10:58:30.515Z,43.50
2018-03-02T11:01:05.011Z,43.41
2018-03-02T11:03:39.392Z,43.25
2018-03-02T11:06:09.231Z,43.30
2018-03-02T11:08:39.018Z,42.67
2018-03-02T11:11:09.656Z,42.35
2018-03-02T11:13:39.458Z,42.22
2018-03-02T11:16:09.253Z,42.33
2018-03-02T11:18:39.027Z,42.58
2018-03-02T11:21:08.782Z,42.48
2018-03-02T11:23:38.608Z,42.23
2018-03-02T11:26:08.472Z,42.56
2018-03-02T11:28:38.367Z,42.15
2018-03-02T11:31:08.248Z,41.95
2018-03-02T11:33:37.967Z,41.42
2018-03-02T11:36:07.737Z,41.20
2018-03-02T11:38:37.524Z,40.85
2018-03-02T11:41:08.097Z,40.71
2018-03-02T11:43:37.900Z,40.74
2018-03-02T11:46:08.476Z,40.97
2018-03-02T11:48:38.220Z,40.78
2018-03-02T11:51:08.890Z,40.78
2018-03-02T11:53:39.490Z,40.89
2018-03-02T11:56:09.299Z,40.53
2018-03-02T11:58:39.113Z,40.49
2018-03-02T12:01:08.844Z,40.38
2018-03-02T12:03:38.628Z,39.92
2018-03-02T12:06:09.242Z,39.52
2018-03-02T12:08:39.054Z,39.18
2018-03-02T12:11:09.122Z,39.76
2018-03-02T12:13:38.887Z,39.89
2018-03-02T12:16:08.776Z,39.83
2018-03-02T12:18:41.046Z,39.94
2018-03-02T12:21:11.726Z,39.98
2018-03-02T12:23:41.471Z,40.41
2018-03-02T12:26:11.277Z,40.41
2018-03-02T12:28:40.981Z,40.40
2018-03-02T12:31:10.823Z,40.07
2018-03-02T12:33:41.530Z,40.32
2018-03-02T12:36:12.097Z,39.60
2018-03-02T12:38:41.851Z,38.94
2018-03-02T12:41:11.753Z,39.28
2018-03-02T12:43:41.488Z,39.27
2018-03-02T12:46:11.236Z,39.12
2018-03-02T12:48:40.968Z,39.55
2018-03-02T12:51:10.700Z,39.56
2018-03-02T12:53:40.472Z,39.71
2018-03-02T12:56:10.377Z,39.41
2018-03-02T12:58:40.115Z,39.31
2018-03-02T13:01:09.956Z,39.24
2018-03-02T13:03:39.685Z,39.30
2018-03-02T13:06:09.628Z,39.43
2018-03-02T13:08:39.391Z,38.89
2018-03-02T13:11:09.102Z,38.80
2018-03-02T13:13:39.679Z,38.44
2018-03-02T13:16:09.475Z,38.53
2018-03-02T13:18:44.335Z,38.62
2018-03-02T13:21:14.259Z,38.71
2018-03-02T13:23:44.136Z,38.47
2018-03-02T13:26:27.132Z,38.61
2018-03-02T13:28:57.092Z,38.80
2018-03-02T13:31:26.856Z,38.74
2018-03-02T13:34:13.514Z,38.62
2018-03-02T13:36:43.290Z,38.55
2018-03-02T13:39:14.919Z,38.26
2018-03-02T13:42:05.257Z,38.00
2018-03-02T13:44:35.806Z,37.66
2018-03-02T13:47:05.771Z,37.72
2018-03-02T13:50:12.481Z,38.06
2018-03-02T13:52:42.272Z,38.09
2018-03-02T13:55:12.148Z,37.80
2018-03-02T13:58:01.381Z,37.96
2018-03-02T14:00:31.189Z,37.96
2018-03-02T14:04:19.325Z,37.77
2018-03-02T14:06:49.898Z,37.46
2018-03-02T14:09:19.705Z,37.95
2018-03-02T14:11:50.180Z,38.02
2018-03-02T14:14:20.278Z,37.64
2018-03-02T14:16:50.166Z,37.69
2018-03-02T14:19:20.415Z,37.90
2018-03-02T14:21:50.308Z,37.84
2018-03-02T14:24:20.007Z,37.71
2018-03-02T14:26:49.969Z,37.80
2018-03-02T14:29:19.686Z,37.75
2018-03-02T14:31:49.511Z,38.10
2018-03-02T14:34:19.248Z,38.05
2018-03-02T14:36:49.012Z,38.19
2018-03-02T14:39:18.854Z,38.30
2018-03-02T14:41:48.582Z,38.15
2018-03-02T14:44:18.639Z,38.01
2018-03-02T14:46:48.349Z,37.81
2018-03-02T14:49:18.920Z,37.55
2018-03-02T14:51:49.447Z,37.70
2018-03-02T14:54:19.217Z,37.65
2018-03-02T14:56:48.969Z,37.83
2018-03-02T14:59:18.848Z,37.99
2018-03-02T15:01:48.562Z,38.15
2018-03-02T15:04:19.106Z,38.03
2018-03-02T15:06:49.621Z,37.68
2018-03-02T15:09:19.423Z,37.82
2018-03-02T15:11:49.317Z,37.91
2018-03-02T15:14:19.001Z,37.79
2018-03-02T15:16:49.572Z,37.91
2018-03-02T15:19:19.298Z,37.79
2018-03-02T15:21:49.052Z,37.95
2018-03-02T15:24:18.900Z,38.25
2018-03-02T15:26:48.625Z,38.08
2018-03-02T15:29:18.392Z,38.29
2018-03-02T15:31:48.106Z,38.23
2018-03-02T15:34:17.874Z,38.37
2018-03-02T15:36:47.714Z,38.50
2018-03-02T15:39:17.508Z,38.53
2018-03-02T15:41:47.310Z,38.50
2018-03-02T15:44:17.070Z,38.50
2018-03-02T15:46:46.840Z,38.71
2018-03-02T15:49:16.718Z,38.77
2018-03-02T15:51:46.521Z,38.58
2018-03-02T15:54:16.241Z,38.59
2018-03-02T15:56:46.217Z,38.87
2018-03-02T15:59:16.789Z,38.92
2018-03-02T16:01:46.610Z,38.67
2018-03-02T16:04:17.313Z,38.54
2018-03-02T16:06:47.060Z,38.68
2018-03-02T16:09:16.804Z,38.69
2018-03-02T16:11:46.617Z,38.64
2018-03-02T16:14:16.615Z,41.99
2018-03-02T16:16:46.661Z,41.24
2018-03-02T16:19:16.420Z,38.70
2018-03-02T16:21:46.348Z,36.92
2018-03-02T16:24:16.148Z,37.40
2018-03-02T16:26:45.983Z,37.99
2018-03-02T16:29:15.832Z,38.36
2018-03-02T16:31:46.915Z,38.72
2018-03-02T16:34:17.615Z,38.81
2018-03-02T16:36:48.791Z,38.70
2018-03-02T16:39:18.630Z,38.89
2018-03-02T16:41:48.464Z,39.02
2018-03-02T16:44:19.482Z,39.12
2018-03-02T16:46:49.335Z,39.32
2018-03-02T16:49:19.041Z,39.43
2018-03-02T16:51:48.771Z,39.48
2018-03-02T16:54:18.622Z,39.79
2018-03-02T16:56:49.208Z,39.84
2018-03-02T16:59:20.220Z,39.81
2018-03-02T17:01:51.050Z,39.81
2018-03-02T17:04:21.838Z,39.94
2018-03-02T17:06:51.536Z,39.95
2018-03-02T17:09:21.450Z,40.12
2018-03-02T17:11:51.992Z,40.16
2018-03-02T17:14:22.603Z,40.38
2018-03-02T17:16:52.400Z,40.28
2018-03-02T17:19:22.705Z,40.40
2018-03-02T17:21:52.421Z,40.41
2018-03-02T17:24:23.129Z,40.35
2018-03-02T17:26:52.848Z,40.43
2018-03-02T17:29:22.683Z,40.47
2018-03-02T17:31:53.032Z,40.58
2018-03-02T17:34:23.548Z,40.66
2018-03-02T17:36:53.323Z,40.70
2018-03-02T17:39:23.124Z,40.69
2018-03-02T17:41:53.126Z,40.68
2018-03-02T17:44:23.025Z,40.73
2018-03-02T17:46:52.797Z,40.71
2018-03-02T17:49:23.383Z,40.72
2018-03-02T17:51:54.568Z,40.82
2018-03-02T17:54:24.402Z,40.73
2018-03-02T17:56:54.288Z,40.73
2018-03-02T17:59:24.114Z,40.66
2018-03-02T18:01:53.948Z,40.64
2018-03-02T18:04:23.744Z,40.70
2018-03-02T18:06:53.601Z,40.89
2018-03-02T18:09:23.489Z,41.10
2018-03-02T18:11:53.248Z,40.98
2018-03-02T18:14:23.033Z,41.05
2018-03-02T18:16:52.920Z,41.23
2018-03-02T18:19:22.670Z,41.38
2018-03-02T18:21:53.290Z,41.44
2018-03-02T18:24:23.117Z,41.35
2018-03-02T18:26:53.020Z,41.35
2018-03-02T18:29:23.198Z,41.38
2018-03-02T18:31:53.061Z,41.44
2018-03-02T18:34:22.861Z,41.51
2018-03-02T18:36:52.632Z,41.62
2018-03-02T18:39:22.479Z,41.60
2018-03-02T18:41:53.341Z,41.66
2018-03-02T18:44:23.242Z,41.62
2018-03-02T18:46:53.220Z,41.79
2018-03-02T18:49:23.039Z,41.72
2018-03-02T18:51:52.927Z,42.07
2018-03-02T18:54:23.705Z,41.45
2018-03-02T18:56:53.690Z,41.74
2018-03-02T18:59:23.464Z,41.93
2018-03-02T19:01:53.500Z,41.89
2018-03-02T19:04:23.329Z,42.02
2018-03-02T19:06:53.435Z,41.96
2018-03-02T19:09:23.560Z,41.98
2018-03-02T19:11:53.629Z,42.12
2018-03-02T19:14:23.340Z,42.05
2018-03-02T19:16:53.195Z,42.25
2018-03-02T19:19:23.771Z,42.11
2018-03-02T19:21:53.740Z,42.32
2018-03-02T19:24:23.560Z,42.12
2018-03-02T19:26:53.512Z,42.22
2018-03-02T19:29:23.340Z,42.33
2018-03-02T19:31:54.390Z,42.47
2018-03-02T19:34:24.221Z,42.71
2018-03-02T19:36:54.785Z,44.80
2018-03-02T19:39:26.088Z,42.89
2018-03-02T19:41:56.527Z,42.67
2018-03-02T19:44:26.336Z,42.29
2018-03-02T19:46:56.250Z,42.31
2018-03-02T19:49:26.555Z,42.78
2018-03-02T19:51:57.404Z,42.56
2018-03-02T19:54:28.067Z,42.88
2018-03-02T19:56:57.831Z,43.12
2018-03-02T19:59:27.700Z,43.42
2018-03-02T20:01:58.192Z,43.29
2018-03-02T20:04:28.127Z,44.51
2018-03-02T20:06:57.957Z,44.61
2018-03-02T20:09:27.814Z,45.04
2018-03-02T20:11:58.615Z,47.32
2018-03-02T20:14:28.361Z,49.11
2018-03-02T20:16:58.787Z,50.24
2018-03-02T20:19:28.593Z,50.46
2018-03-02T20:21:58.554Z,50.53
2018-03-02T20:24:28.529Z,50.56
2018-03-02T20:26:58.321Z,50.89
2018-03-02T20:29:29.245Z,51.17
2018-03-02T20:31:59.039Z,51.71
2018-03-02T20:34:29.114Z,51.92
2018-03-02T20:37:00.036Z,51.79
2018-03-02T20:39:29.821Z,51.88
2018-03-02T20:41:59.565Z,51.81
2018-03-02T20:44:29.485Z,51.64
2018-03-02T20:46:59.755Z,51.31
2018-03-02T20:49:30.234Z,51.29
2018-03-02T20:52:00.230Z,50.56
2018-03-02T20:54:30.090Z,50.21
2018-03-02T20:56:59.916Z,49.91
2018-03-02T20:59:29.660Z,50.07
2018-03-02T21:01:59.734Z,50.07
2018-03-02T21:04:30.581Z,49.87
2018-03-02T21:07:01.198Z,49.88
2018-03-02T21:09:31.316Z,50.00
2018-03-02T21:12:01.176Z,50.12
2018-03-02T21:14:31.798Z,50.04
2018-03-02T21:17:01.587Z,50.15
2018-03-02T21:19:31.316Z,50.11
2018-03-02T21:22:01.125Z,50.28
2018-03-02T21:24:30.872Z,50.76
2018-03-02T21:27:00.627Z,51.45
2018-03-02T21:29:31.259Z,52.23
2018-03-02T21:32:01.001Z,52.92
2018-03-02T21:34:31.545Z,53.27
2018-03-02T21:37:01.374Z,53.98
2018-03-02T21:39:31.143Z,55.00
2018-03-02T21:42:01.088Z,56.09
2018-03-02T21:44:30.886Z,56.73
2018-03-02T21:47:00.773Z,57.97
2018-03-02T21:49:31.325Z,58.62
2018-03-02T21:52:01.018Z,59.51
2018-03-02T21:54:30.916Z,59.54
2018-03-02T21:57:00.664Z,60.23
2018-03-02T21:59:30.444Z,61.70
2018-03-02T22:02:00.178Z,62.68
2018-03-02T22:04:30.369Z,63.57
2018-03-02T22:07:00.143Z,63.90
2018-03-02T22:09:29.967Z,64.90
2018-03-02T22:12:00.586Z,65.59
2018-03-02T22:14:30.459Z,65.94
2018-03-02T22:17:01.038Z,66.65
2018-03-02T22:19:30.806Z,67.11
2018-03-02T22:22:00.490Z,67.71
2018-03-02T22:24:30.279Z,67.84
2018-03-02T22:27:00.735Z,68.42
2018-03-02T22:29:31.092Z,68.68
2018-03-02T22:32:00.882Z,69.13
2018-03-02T22:34:31.750Z,70.06
2018-03-02T22:37:02.905Z,70.15
2018-03-02T22:39:32.772Z,70.65
2018-03-02T22:42:02.571Z,70.84
2018-03-02T22:44:32.377Z,71.08
2018-03-02T22:47:02.208Z,71.67
2018-03-02T22:49:32.951Z,72.15
2018-03-02T22:52:02.860Z,72.73
2018-03-02T22:54:33.135Z,73.10
2018-03-02T22:57:02.933Z,73.36
2018-03-02T22:59:33.680Z,73.72
2018-03-02T23:02:03.737Z,73.69
2018-03-02T23:04:33.540Z,73.94
2018-03-02T23:07:04.080Z,74.12
2018-03-02T23:09:33.985Z,73.91
2018-03-02T23:12:03.970Z,74.14
2018-03-02T23:14:34.063Z,74.33
2018-03-02T23:17:03.897Z,74.28
2018-03-02T23:19:34.058Z,73.97
2018-03-02T23:22:03.787Z,74.24
2018-03-02T23:24:33.580Z,74.57
2018-03-02T23:27:03.499Z,74.94
2018-03-02T23:29:33.215Z,74.64
2018-03-02T23:32:03.003Z,74.82
2018-03-02T23:34:32.848Z,75.29
2018-03-02T23:37:02.748Z,75.49
2018-03-02T23:39:32.871Z,75.38
2018-03-02T23:42:03.437Z,75.05
2018-03-02T23:44:33.129Z,75.06
2018-03-02T23:47:03.634Z,75.08
2018-03-02T23:49:33.488Z,74.97
2018-03-02T23:52:04.342Z,75.09
2018-03-02T23:54:34.333Z,75.09
2018-03-02T23:57:04.447Z,74.69
2018-03-02T23:59:34.221Z,75.17
